sensor_id;sensor_type;location;lat;lon;timestamp;P1;durP1;ratioP1;P2;durP2;ratioP2
59310;SDS011;45078;51.654;21.250;2023-05-23T00:01:21;9.50;;;6.35;;
59310;SDS011;45078;51.654;21.250;2023-05-23T00:03:48;9.30;;;6.25;;
59310;SDS011;45078;51.654;21.250;2023-05-23T00:06:18;10.50;;;6.88;;
59310;SDS011;45078;51.654;21.250;2023-05-23T00:08:45;12.27;;;6.63;;
59310;SDS011;45078;51.654;21.250;2023-05-23T00:11:11;13.43;;;6.18;;
59310;SDS011;45078;51.654;21.250;2023-05-23T00:13:37;9.95;;;6.03;;
59310;SDS011;45078;51.654;21.250;2023-05-23T00:16:04;12.75;;;5.82;;
59310;SDS011;45078;51.654;21.250;2023-05-23T00:18:34;9.73;;;5.80;;
59310;SDS011;45078;51.654;21.250;2023-05-23T00:23:35;13.90;;;6.65;;
59310;SDS011;45078;51.654;21.250;2023-05-23T00:26:02;10.55;;;6.13;;
59310;SDS011;45078;51.654;21.250;2023-05-23T00:28:28;15.07;;;6.97;;
59310;SDS011;45078;51.654;21.250;2023-05-23T00:30:54;9.13;;;6.20;;
59310;SDS011;45078;51.654;21.250;2023-05-23T00:33:20;15.23;;;6.82;;
59310;SDS011;45078;51.654;21.250;2023-05-23T00:35:46;10.55;;;6.50;;
59310;SDS011;45078;51.654;21.250;2023-05-23T00:38:12;13.32;;;6.70;;
59310;SDS011;45078;51.654;21.250;2023-05-23T00:40:39;12.52;;;6.53;;
59310;SDS011;45078;51.654;21.250;2023-05-23T00:43:04;11.05;;;6.63;;
59310;SDS011;45078;51.654;21.250;2023-05-23T00:45:32;12.27;;;7.35;;
59310;SDS011;45078;51.654;21.250;2023-05-23T00:47:58;11.05;;;6.75;;
59310;SDS011;45078;51.654;21.250;2023-05-23T00:50:25;10.30;;;6.57;;
59310;SDS011;45078;51.654;21.250;2023-05-23T00:52:55;11.10;;;6.68;;
59310;SDS011;45078;51.654;21.250;2023-05-23T00:55:23;12.23;;;6.75;;
59310;SDS011;45078;51.654;21.250;2023-05-23T00:57:50;10.63;;;5.85;;
59310;SDS011;45078;51.654;21.250;2023-05-23T01:00:19;11.65;;;7.07;;
59310;SDS011;45078;51.654;21.250;2023-05-23T01:02:47;13.70;;;7.25;;
59310;SDS011;45078;51.654;21.250;2023-05-23T01:05:16;12.55;;;7.22;;
59310;SDS011;45078;51.654;21.250;2023-05-23T01:07:46;14.05;;;8.63;;
59310;SDS011;45078;51.654;21.250;2023-05-23T01:10:13;15.48;;;7.50;;
59310;SDS011;45078;51.654;21.250;2023-05-23T01:15:36;14.07;;;7.22;;
59310;SDS011;45078;51.654;21.250;2023-05-23T01:21:10;14.45;;;8.77;;
59310;SDS011;45078;51.654;21.250;2023-05-23T01:26:31;14.48;;;8.27;;
59310;SDS011;45078;51.654;21.250;2023-05-23T01:29:19;15.20;;;7.55;;
59310;SDS011;45078;51.654;21.250;2023-05-23T01:31:48;13.82;;;7.88;;
59310;SDS011;45078;51.654;21.250;2023-05-23T01:34:18;14.73;;;7.97;;
59310;SDS011;45078;51.654;21.250;2023-05-23T01:36:48;13.98;;;8.23;;
59310;SDS011;45078;51.654;21.250;2023-05-23T01:39:17;14.98;;;8.65;;
59310;SDS011;45078;51.654;21.250;2023-05-23T01:41:43;16.33;;;8.48;;
59310;SDS011;45078;51.654;21.250;2023-05-23T01:44:09;19.17;;;8.02;;
59310;SDS011;45078;51.654;21.250;2023-05-23T01:46:35;16.27;;;8.20;;
59310;SDS011;45078;51.654;21.250;2023-05-23T01:49:03;20.00;;;10.13;;
59310;SDS011;45078;51.654;21.250;2023-05-23T01:51:31;22.83;;;9.13;;
59310;SDS011;45078;51.654;21.250;2023-05-23T01:53:58;18.20;;;9.15;;
59310;SDS011;45078;51.654;21.250;2023-05-23T01:56:25;17.30;;;8.77;;
59310;SDS011;45078;51.654;21.250;2023-05-23T01:58:52;19.15;;;9.05;;
59310;SDS011;45078;51.654;21.250;2023-05-23T02:01:18;24.77;;;9.45;;
59310;SDS011;45078;51.654;21.250;2023-05-23T02:03:45;17.00;;;9.43;;
59310;SDS011;45078;51.654;21.250;2023-05-23T02:06:10;15.35;;;8.77;;
59310;SDS011;45078;51.654;21.250;2023-05-23T02:08:36;16.83;;;8.85;;
59310;SDS011;45078;51.654;21.250;2023-05-23T02:11:03;15.77;;;9.43;;
59310;SDS011;45078;51.654;21.250;2023-05-23T02:13:28;19.05;;;9.70;;
59310;SDS011;45078;51.654;21.250;2023-05-23T02:15:54;20.75;;;10.40;;
59310;SDS011;45078;51.654;21.250;2023-05-23T02:18:21;19.60;;;9.68;;
59310;SDS011;45078;51.654;21.250;2023-05-23T02:20:50;20.73;;;10.05;;
59310;SDS011;45078;51.654;21.250;2023-05-23T02:23:16;16.48;;;10.00;;
59310;SDS011;45078;51.654;21.250;2023-05-23T02:25:42;15.40;;;9.77;;
59310;SDS011;45078;51.654;21.250;2023-05-23T02:28:07;19.30;;;9.45;;
59310;SDS011;45078;51.654;21.250;2023-05-23T02:30:35;18.80;;;9.20;;
59310;SDS011;45078;51.654;21.250;2023-05-23T02:33:03;18.67;;;9.13;;
59310;SDS011;45078;51.654;21.250;2023-05-23T02:35:32;15.27;;;8.40;;
59310;SDS011;45078;51.654;21.250;2023-05-23T02:37:58;20.38;;;9.23;;
59310;SDS011;45078;51.654;21.250;2023-05-23T02:40:25;15.63;;;8.18;;
59310;SDS011;45078;51.654;21.250;2023-05-23T02:42:50;12.95;;;7.75;;
59310;SDS011;45078;51.654;21.250;2023-05-23T02:45:16;15.32;;;7.63;;
59310;SDS011;45078;51.654;21.250;2023-05-23T02:47:42;13.00;;;8.07;;
59310;SDS011;45078;51.654;21.250;2023-05-23T02:50:08;15.43;;;7.90;;
59310;SDS011;45078;51.654;21.250;2023-05-23T02:52:34;14.68;;;8.30;;
59310;SDS011;45078;51.654;21.250;2023-05-23T02:55:00;16.20;;;8.65;;
59310;SDS011;45078;51.654;21.250;2023-05-23T02:57:26;13.60;;;7.97;;
59310;SDS011;45078;51.654;21.250;2023-05-23T02:59:52;13.07;;;7.20;;
59310;SDS011;45078;51.654;21.250;2023-05-23T03:02:17;13.13;;;7.15;;
59310;SDS011;45078;51.654;21.250;2023-05-23T03:04:43;13.57;;;7.68;;
59310;SDS011;45078;51.654;21.250;2023-05-23T03:07:10;14.00;;;7.60;;
59310;SDS011;45078;51.654;21.250;2023-05-23T03:09:37;14.98;;;7.82;;
59310;SDS011;45078;51.654;21.250;2023-05-23T03:12:03;16.92;;;6.90;;
59310;SDS011;45078;51.654;21.250;2023-05-23T03:14:30;12.20;;;7.07;;
59310;SDS011;45078;51.654;21.250;2023-05-23T03:16:55;12.48;;;6.60;;
59310;SDS011;45078;51.654;21.250;2023-05-23T03:19:22;9.07;;;6.15;;
59310;SDS011;45078;51.654;21.250;2023-05-23T03:21:48;11.63;;;6.38;;
59310;SDS011;45078;51.654;21.250;2023-05-23T03:24:15;15.48;;;7.55;;
59310;SDS011;45078;51.654;21.250;2023-05-23T03:26:41;12.48;;;6.45;;
59310;SDS011;45078;51.654;21.250;2023-05-23T03:29:06;10.73;;;5.90;;
59310;SDS011;45078;51.654;21.250;2023-05-23T03:31:34;9.95;;;6.22;;
59310;SDS011;45078;51.654;21.250;2023-05-23T03:34:01;9.63;;;6.18;;
59310;SDS011;45078;51.654;21.250;2023-05-23T03:36:27;10.70;;;6.47;;
59310;SDS011;45078;51.654;21.250;2023-05-23T03:38:52;13.65;;;7.22;;
59310;SDS011;45078;51.654;21.250;2023-05-23T03:41:18;11.70;;;6.85;;
59310;SDS011;45078;51.654;21.250;2023-05-23T03:43:44;13.02;;;7.97;;
59310;SDS011;45078;51.654;21.250;2023-05-23T03:46:09;12.73;;;7.93;;
59310;SDS011;45078;51.654;21.250;2023-05-23T03:48:35;14.32;;;7.38;;
59310;SDS011;45078;51.654;21.250;2023-05-23T03:51:01;12.85;;;6.93;;
59310;SDS011;45078;51.654;21.250;2023-05-23T03:53:27;11.15;;;6.53;;
59310;SDS011;45078;51.654;21.250;2023-05-23T03:55:52;11.82;;;6.72;;
59310;SDS011;45078;51.654;21.250;2023-05-23T03:58:19;20.67;;;6.38;;
59310;SDS011;45078;51.654;21.250;2023-05-23T04:00:45;9.95;;;6.07;;
59310;SDS011;45078;51.654;21.250;2023-05-23T04:03:11;10.48;;;6.00;;
59310;SDS011;45078;51.654;21.250;2023-05-23T04:05:39;11.95;;;6.25;;
59310;SDS011;45078;51.654;21.250;2023-05-23T04:08:05;12.55;;;6.75;;
59310;SDS011;45078;51.654;21.250;2023-05-23T04:10:32;10.55;;;5.57;;
59310;SDS011;45078;51.654;21.250;2023-05-23T04:12:57;8.63;;;5.30;;
59310;SDS011;45078;51.654;21.250;2023-05-23T04:15:23;8.80;;;5.80;;
59310;SDS011;45078;51.654;21.250;2023-05-23T04:17:49;10.25;;;5.43;;
59310;SDS011;45078;51.654;21.250;2023-05-23T04:20:15;11.48;;;5.60;;
59310;SDS011;45078;51.654;21.250;2023-05-23T04:22:41;10.40;;;5.97;;
59310;SDS011;45078;51.654;21.250;2023-05-23T04:25:07;9.18;;;5.78;;
59310;SDS011;45078;51.654;21.250;2023-05-23T04:27:33;10.23;;;5.95;;
59310;SDS011;45078;51.654;21.250;2023-05-23T04:29:59;8.52;;;5.63;;
59310;SDS011;45078;51.654;21.250;2023-05-23T04:32:25;9.10;;;6.00;;
59310;SDS011;45078;51.654;21.250;2023-05-23T04:34:51;12.25;;;6.05;;
59310;SDS011;45078;51.654;21.250;2023-05-23T04:37:18;11.25;;;5.70;;
59310;SDS011;45078;51.654;21.250;2023-05-23T04:39:49;9.32;;;5.97;;
59310;SDS011;45078;51.654;21.250;2023-05-23T04:42:16;12.18;;;6.38;;
59310;SDS011;45078;51.654;21.250;2023-05-23T04:44:42;12.40;;;6.25;;
59310;SDS011;45078;51.654;21.250;2023-05-23T04:47:08;13.10;;;6.40;;
59310;SDS011;45078;51.654;21.250;2023-05-23T04:49:35;11.75;;;6.72;;
59310;SDS011;45078;51.654;21.250;2023-05-23T04:52:01;7.85;;;5.68;;
59310;SDS011;45078;51.654;21.250;2023-05-23T04:54:27;9.63;;;5.40;;
59310;SDS011;45078;51.654;21.250;2023-05-23T04:56:53;9.13;;;5.57;;
59310;SDS011;45078;51.654;21.250;2023-05-23T04:59:18;12.10;;;5.85;;
59310;SDS011;45078;51.654;21.250;2023-05-23T05:01:44;9.10;;;5.63;;
59310;SDS011;45078;51.654;21.250;2023-05-23T05:04:10;10.23;;;5.57;;
59310;SDS011;45078;51.654;21.250;2023-05-23T05:06:36;9.00;;;5.70;;
59310;SDS011;45078;51.654;21.250;2023-05-23T05:09:02;8.80;;;4.85;;
59310;SDS011;45078;51.654;21.250;2023-05-23T05:11:27;13.57;;;5.10;;
59310;SDS011;45078;51.654;21.250;2023-05-23T05:13:53;9.35;;;5.18;;
59310;SDS011;45078;51.654;21.250;2023-05-23T05:16:19;8.88;;;4.95;;
59310;SDS011;45078;51.654;21.250;2023-05-23T05:18:45;10.30;;;4.88;;
59310;SDS011;45078;51.654;21.250;2023-05-23T05:21:11;10.05;;;4.78;;
59310;SDS011;45078;51.654;21.250;2023-05-23T05:23:37;8.27;;;4.10;;
59310;SDS011;45078;51.654;21.250;2023-05-23T05:26:02;7.57;;;4.93;;
59310;SDS011;45078;51.654;21.250;2023-05-23T05:28:29;7.55;;;5.05;;
59310;SDS011;45078;51.654;21.250;2023-05-23T05:30:55;11.88;;;4.43;;
59310;SDS011;45078;51.654;21.250;2023-05-23T05:33:21;7.68;;;4.82;;
59310;SDS011;45078;51.654;21.250;2023-05-23T05:35:48;10.70;;;4.90;;
59310;SDS011;45078;51.654;21.250;2023-05-23T05:38:15;7.35;;;4.80;;
59310;SDS011;45078;51.654;21.250;2023-05-23T05:40:41;9.20;;;4.35;;
59310;SDS011;45078;51.654;21.250;2023-05-23T05:43:07;6.57;;;3.83;;
59310;SDS011;45078;51.654;21.250;2023-05-23T05:45:34;7.53;;;4.40;;
59310;SDS011;45078;51.654;21.250;2023-05-23T05:48:00;8.07;;;4.78;;
59310;SDS011;45078;51.654;21.250;2023-05-23T05:50:26;6.30;;;4.03;;
59310;SDS011;45078;51.654;21.250;2023-05-23T05:52:51;6.45;;;4.30;;
59310;SDS011;45078;51.654;21.250;2023-05-23T05:55:17;6.75;;;3.60;;
59310;SDS011;45078;51.654;21.250;2023-05-23T05:57:43;7.07;;;3.85;;
59310;SDS011;45078;51.654;21.250;2023-05-23T06:00:09;10.35;;;4.05;;
59310;SDS011;45078;51.654;21.250;2023-05-23T06:02:42;6.47;;;4.03;;
59310;SDS011;45078;51.654;21.250;2023-05-23T06:05:08;8.32;;;4.10;;
59310;SDS011;45078;51.654;21.250;2023-05-23T06:07:37;4.70;;;3.00;;
59310;SDS011;45078;51.654;21.250;2023-05-23T06:10:06;5.15;;;3.40;;
59310;SDS011;45078;51.654;21.250;2023-05-23T06:12:35;5.65;;;3.70;;
59310;SDS011;45078;51.654;21.250;2023-05-23T06:15:01;8.07;;;3.90;;
59310;SDS011;45078;51.654;21.250;2023-05-23T06:17:26;4.63;;;2.95;;
59310;SDS011;45078;51.654;21.250;2023-05-23T06:19:52;7.13;;;3.30;;
59310;SDS011;45078;51.654;21.250;2023-05-23T06:22:18;5.63;;;3.17;;
59310;SDS011;45078;51.654;21.250;2023-05-23T06:24:44;7.30;;;3.67;;
59310;SDS011;45078;51.654;21.250;2023-05-23T06:27:11;5.63;;;3.30;;
59310;SDS011;45078;51.654;21.250;2023-05-23T06:29:37;5.70;;;3.35;;
59310;SDS011;45078;51.654;21.250;2023-05-23T06:32:03;6.70;;;3.58;;
59310;SDS011;45078;51.654;21.250;2023-05-23T06:34:29;6.55;;;2.90;;
59310;SDS011;45078;51.654;21.250;2023-05-23T06:36:55;6.28;;;3.13;;
59310;SDS011;45078;51.654;21.250;2023-05-23T06:39:23;5.50;;;2.83;;
59310;SDS011;45078;51.654;21.250;2023-05-23T06:41:49;3.63;;;2.58;;
59310;SDS011;45078;51.654;21.250;2023-05-23T06:44:15;4.95;;;2.83;;
59310;SDS011;45078;51.654;21.250;2023-05-23T06:46:44;6.18;;;3.10;;
59310;SDS011;45078;51.654;21.250;2023-05-23T06:49:10;4.55;;;2.92;;
59310;SDS011;45078;51.654;21.250;2023-05-23T06:51:36;4.38;;;2.72;;
59310;SDS011;45078;51.654;21.250;2023-05-23T06:54:02;4.35;;;2.88;;
59310;SDS011;45078;51.654;21.250;2023-05-23T06:56:28;5.57;;;2.60;;
59310;SDS011;45078;51.654;21.250;2023-05-23T06:58:53;3.90;;;2.67;;
59310;SDS011;45078;51.654;21.250;2023-05-23T07:01:19;4.50;;;2.60;;
59310;SDS011;45078;51.654;21.250;2023-05-23T07:03:45;4.10;;;2.60;;
59310;SDS011;45078;51.654;21.250;2023-05-23T07:06:11;3.90;;;2.70;;
59310;SDS011;45078;51.654;21.250;2023-05-23T07:08:37;4.57;;;2.63;;
59310;SDS011;45078;51.654;21.250;2023-05-23T07:11:03;9.00;;;2.88;;
59310;SDS011;45078;51.654;21.250;2023-05-23T07:13:30;3.78;;;2.53;;
59310;SDS011;45078;51.654;21.250;2023-05-23T07:15:56;7.63;;;2.60;;
59310;SDS011;45078;51.654;21.250;2023-05-23T07:18:22;6.45;;;2.40;;
59310;SDS011;45078;51.654;21.250;2023-05-23T07:20:48;3.40;;;2.50;;
59310;SDS011;45078;51.654;21.250;2023-05-23T07:23:14;3.83;;;2.47;;
59310;SDS011;45078;51.654;21.250;2023-05-23T07:25:40;3.63;;;2.47;;
59310;SDS011;45078;51.654;21.250;2023-05-23T07:28:07;4.25;;;2.70;;
59310;SDS011;45078;51.654;21.250;2023-05-23T07:30:33;5.35;;;2.83;;
59310;SDS011;45078;51.654;21.250;2023-05-23T07:32:59;3.35;;;2.53;;
59310;SDS011;45078;51.654;21.250;2023-05-23T07:35:25;9.45;;;2.55;;
59310;SDS011;45078;51.654;21.250;2023-05-23T07:37:51;3.80;;;2.47;;
59310;SDS011;45078;51.654;21.250;2023-05-23T07:40:17;3.67;;;2.45;;
59310;SDS011;45078;51.654;21.250;2023-05-23T07:42:43;3.50;;;2.38;;
59310;SDS011;45078;51.654;21.250;2023-05-23T07:45:09;2.83;;;1.95;;
59310;SDS011;45078;51.654;21.250;2023-05-23T07:47:36;3.63;;;2.50;;
59310;SDS011;45078;51.654;21.250;2023-05-23T07:50:01;3.85;;;2.30;;
59310;SDS011;45078;51.654;21.250;2023-05-23T07:52:30;3.67;;;2.33;;
59310;SDS011;45078;51.654;21.250;2023-05-23T07:54:56;6.10;;;3.63;;
59310;SDS011;45078;51.654;21.250;2023-05-23T07:57:23;3.90;;;2.50;;
59310;SDS011;45078;51.654;21.250;2023-05-23T07:59:49;5.35;;;2.10;;
59310;SDS011;45078;51.654;21.250;2023-05-23T08:02:15;4.15;;;2.30;;
59310;SDS011;45078;51.654;21.250;2023-05-23T08:04:41;5.50;;;2.50;;
59310;SDS011;45078;51.654;21.250;2023-05-23T08:07:07;2.55;;;1.77;;
59310;SDS011;45078;51.654;21.250;2023-05-23T08:09:34;3.72;;;2.42;;
59310;SDS011;45078;51.654;21.250;2023-05-23T08:12:00;5.53;;;2.40;;
59310;SDS011;45078;51.654;21.250;2023-05-23T08:14:26;4.38;;;2.13;;
59310;SDS011;45078;51.654;21.250;2023-05-23T08:16:51;4.63;;;2.80;;
59310;SDS011;45078;51.654;21.250;2023-05-23T08:19:17;6.68;;;2.42;;
59310;SDS011;45078;51.654;21.250;2023-05-23T08:21:43;7.65;;;2.75;;
59310;SDS011;45078;51.654;21.250;2023-05-23T08:24:09;4.35;;;2.30;;
59310;SDS011;45078;51.654;21.250;2023-05-23T08:26:37;4.53;;;2.40;;
59310;SDS011;45078;51.654;21.250;2023-05-23T08:29:03;4.68;;;2.17;;
59310;SDS011;45078;51.654;21.250;2023-05-23T08:31:29;3.05;;;1.80;;
59310;SDS011;45078;51.654;21.250;2023-05-23T08:33:58;3.70;;;2.22;;
59310;SDS011;45078;51.654;21.250;2023-05-23T08:36:24;3.15;;;1.50;;
59310;SDS011;45078;51.654;21.250;2023-05-23T08:38:50;3.70;;;2.40;;
59310;SDS011;45078;51.654;21.250;2023-05-23T08:41:20;4.45;;;1.95;;
59310;SDS011;45078;51.654;21.250;2023-05-23T08:43:47;3.58;;;1.98;;
59310;SDS011;45078;51.654;21.250;2023-05-23T08:46:16;5.13;;;2.00;;
59310;SDS011;45078;51.654;21.250;2023-05-23T08:48:42;3.92;;;2.30;;
59310;SDS011;45078;51.654;21.250;2023-05-23T08:51:13;3.90;;;1.98;;
59310;SDS011;45078;51.654;21.250;2023-05-23T08:53:41;3.45;;;1.90;;
59310;SDS011;45078;51.654;21.250;2023-05-23T08:56:12;8.80;;;2.10;;
59310;SDS011;45078;51.654;21.250;2023-05-23T08:58:40;4.00;;;2.33;;
59310;SDS011;45078;51.654;21.250;2023-05-23T09:01:09;5.82;;;2.22;;
59310;SDS011;45078;51.654;21.250;2023-05-23T09:03:37;4.90;;;2.65;;
59310;SDS011;45078;51.654;21.250;2023-05-23T09:06:07;3.35;;;2.20;;
59310;SDS011;45078;51.654;21.250;2023-05-23T09:08:34;4.25;;;2.55;;
59310;SDS011;45078;51.654;21.250;2023-05-23T09:11:04;6.72;;;2.60;;
59310;SDS011;45078;51.654;21.250;2023-05-23T09:13:31;3.20;;;1.95;;
59310;SDS011;45078;51.654;21.250;2023-05-23T09:18:26;4.80;;;2.38;;
59310;SDS011;45078;51.654;21.250;2023-05-23T09:20:57;4.18;;;2.42;;
59310;SDS011;45078;51.654;21.250;2023-05-23T09:23:23;8.38;;;2.58;;
59310;SDS011;45078;51.654;21.250;2023-05-23T09:25:48;4.45;;;2.53;;
59310;SDS011;45078;51.654;21.250;2023-05-23T09:28:14;6.05;;;3.47;;
59310;SDS011;45078;51.654;21.250;2023-05-23T09:30:40;4.00;;;2.30;;
59310;SDS011;45078;51.654;21.250;2023-05-23T09:33:06;3.55;;;2.25;;
59310;SDS011;45078;51.654;21.250;2023-05-23T09:35:32;4.65;;;2.40;;
59310;SDS011;45078;51.654;21.250;2023-05-23T09:37:57;3.53;;;2.38;;
59310;SDS011;45078;51.654;21.250;2023-05-23T09:40:27;2.75;;;2.10;;
59310;SDS011;45078;51.654;21.250;2023-05-23T09:43:00;5.35;;;2.30;;
59310;SDS011;45078;51.654;21.250;2023-05-23T09:45:31;4.03;;;2.08;;
59310;SDS011;45078;51.654;21.250;2023-05-23T09:47:58;2.97;;;2.00;;
59310;SDS011;45078;51.654;21.250;2023-05-23T09:50:25;3.10;;;2.28;;
59310;SDS011;45078;51.654;21.250;2023-05-23T09:52:59;4.07;;;2.03;;
59310;SDS011;45078;51.654;21.250;2023-05-23T09:55:25;4.18;;;2.50;;
59310;SDS011;45078;51.654;21.250;2023-05-23T09:57:52;3.63;;;2.10;;
59310;SDS011;45078;51.654;21.250;2023-05-23T10:00:22;3.35;;;1.95;;
59310;SDS011;45078;51.654;21.250;2023-05-23T10:08:31;4.13;;;2.20;;
59310;SDS011;45078;51.654;21.250;2023-05-23T10:14:00;4.55;;;2.15;;
59310;SDS011;45078;51.654;21.250;2023-05-23T10:22:24;3.88;;;2.30;;
59310;SDS011;45078;51.654;21.250;2023-05-23T10:24:50;7.60;;;2.47;;
59310;SDS011;45078;51.654;21.250;2023-05-23T10:27:17;4.57;;;2.58;;
59310;SDS011;45078;51.654;21.250;2023-05-23T10:29:43;4.90;;;2.30;;
59310;SDS011;45078;51.654;21.250;2023-05-23T10:32:10;7.55;;;2.78;;
59310;SDS011;45078;51.654;21.250;2023-05-23T10:34:40;4.32;;;2.40;;
59310;SDS011;45078;51.654;21.250;2023-05-23T10:40:20;4.95;;;2.60;;
59310;SDS011;45078;51.654;21.250;2023-05-23T10:43:15;5.00;;;2.60;;
59310;SDS011;45078;51.654;21.250;2023-05-23T10:45:51;3.70;;;2.65;;
59310;SDS011;45078;51.654;21.250;2023-05-23T10:51:05;6.18;;;2.83;;
59310;SDS011;45078;51.654;21.250;2023-05-23T10:53:33;4.68;;;2.95;;
59310;SDS011;45078;51.654;21.250;2023-05-23T10:56:01;4.13;;;2.80;;
59310;SDS011;45078;51.654;21.250;2023-05-23T10:58:29;4.82;;;2.50;;
59310;SDS011;45078;51.654;21.250;2023-05-23T11:00:58;3.90;;;2.70;;
59310;SDS011;45078;51.654;21.250;2023-05-23T11:03:30;4.85;;;3.00;;
59310;SDS011;45078;51.654;21.250;2023-05-23T11:17:15;3.92;;;2.38;;
59310;SDS011;45078;51.654;21.250;2023-05-23T11:22:26;5.55;;;3.15;;
59310;SDS011;45078;51.654;21.250;2023-05-23T11:24:54;5.35;;;2.78;;
59310;SDS011;45078;51.654;21.250;2023-05-23T11:27:33;3.88;;;2.72;;
59310;SDS011;45078;51.654;21.250;2023-05-23T11:30:10;5.43;;;2.83;;
59310;SDS011;45078;51.654;21.250;2023-05-23T11:32:41;4.53;;;3.22;;
59310;SDS011;45078;51.654;21.250;2023-05-23T11:35:13;6.03;;;3.35;;
59310;SDS011;45078;51.654;21.250;2023-05-23T11:37:41;4.70;;;2.85;;
59310;SDS011;45078;51.654;21.250;2023-05-23T11:42:53;4.25;;;2.88;;
59310;SDS011;45078;51.654;21.250;2023-05-23T11:45:19;7.55;;;3.42;;
59310;SDS011;45078;51.654;21.250;2023-05-23T11:47:46;6.63;;;2.63;;
59310;SDS011;45078;51.654;21.250;2023-05-23T11:50:12;9.20;;;3.05;;
59310;SDS011;45078;51.654;21.250;2023-05-23T11:52:38;5.70;;;2.92;;
59310;SDS011;45078;51.654;21.250;2023-05-23T11:55:05;5.13;;;2.92;;
59310;SDS011;45078;51.654;21.250;2023-05-23T11:57:32;6.53;;;3.10;;
59310;SDS011;45078;51.654;21.250;2023-05-23T11:59:58;6.60;;;3.65;;
59310;SDS011;45078;51.654;21.250;2023-05-23T12:02:26;5.13;;;3.00;;
59310;SDS011;45078;51.654;21.250;2023-05-23T12:04:52;6.65;;;2.97;;
59310;SDS011;45078;51.654;21.250;2023-05-23T12:07:18;8.27;;;3.20;;
59310;SDS011;45078;51.654;21.250;2023-05-23T12:09:45;5.45;;;3.15;;
59310;SDS011;45078;51.654;21.250;2023-05-23T12:12:11;6.80;;;3.13;;
59310;SDS011;45078;51.654;21.250;2023-05-23T12:14:37;4.82;;;2.83;;
59310;SDS011;45078;51.654;21.250;2023-05-23T12:17:11;3.70;;;2.60;;
59310;SDS011;45078;51.654;21.250;2023-05-23T12:19:38;3.85;;;2.92;;
59310;SDS011;45078;51.654;21.250;2023-05-23T12:22:04;4.00;;;2.88;;
59310;SDS011;45078;51.654;21.250;2023-05-23T12:24:33;6.50;;;2.28;;
59310;SDS011;45078;51.654;21.250;2023-05-23T12:27:00;5.28;;;2.78;;
59310;SDS011;45078;51.654;21.250;2023-05-23T12:29:31;7.47;;;2.60;;
59310;SDS011;45078;51.654;21.250;2023-05-23T12:31:58;4.88;;;2.80;;
59310;SDS011;45078;51.654;21.250;2023-05-23T12:34:25;4.47;;;2.42;;
59310;SDS011;45078;51.654;21.250;2023-05-23T12:36:57;3.75;;;2.55;;
59310;SDS011;45078;51.654;21.250;2023-05-23T12:39:28;5.72;;;2.85;;
59310;SDS011;45078;51.654;21.250;2023-05-23T12:41:54;4.18;;;2.60;;
59310;SDS011;45078;51.654;21.250;2023-05-23T12:44:30;6.57;;;2.50;;
59310;SDS011;45078;51.654;21.250;2023-05-23T12:46:56;4.18;;;2.70;;
59310;SDS011;45078;51.654;21.250;2023-05-23T12:49:22;5.07;;;2.50;;
59310;SDS011;45078;51.654;21.250;2023-05-23T12:51:48;3.50;;;2.60;;
59310;SDS011;45078;51.654;21.250;2023-05-23T12:54:13;4.95;;;2.88;;
59310;SDS011;45078;51.654;21.250;2023-05-23T12:56:39;5.38;;;2.65;;
59310;SDS011;45078;51.654;21.250;2023-05-23T12:59:05;4.28;;;2.63;;
59310;SDS011;45078;51.654;21.250;2023-05-23T13:01:31;5.10;;;2.80;;
59310;SDS011;45078;51.654;21.250;2023-05-23T13:03:59;3.97;;;2.45;;
59310;SDS011;45078;51.654;21.250;2023-05-23T13:06:26;5.70;;;2.60;;
59310;SDS011;45078;51.654;21.250;2023-05-23T13:08:52;5.00;;;2.58;;
59310;SDS011;45078;51.654;21.250;2023-05-23T13:11:19;5.97;;;2.97;;
59310;SDS011;45078;51.654;21.250;2023-05-23T13:13:48;5.25;;;2.72;;
59310;SDS011;45078;51.654;21.250;2023-05-23T13:16:15;4.32;;;2.47;;
59310;SDS011;45078;51.654;21.250;2023-05-23T13:18:41;4.78;;;3.30;;
59310;SDS011;45078;51.654;21.250;2023-05-23T13:21:07;7.68;;;2.80;;
59310;SDS011;45078;51.654;21.250;2023-05-23T13:23:33;8.75;;;3.00;;
59310;SDS011;45078;51.654;21.250;2023-05-23T13:26:00;4.38;;;2.63;;
59310;SDS011;45078;51.654;21.250;2023-05-23T13:28:26;6.75;;;3.05;;
59310;SDS011;45078;51.654;21.250;2023-05-23T13:30:52;4.43;;;2.67;;
59310;SDS011;45078;51.654;21.250;2023-05-23T13:33:17;5.10;;;2.95;;
59310;SDS011;45078;51.654;21.250;2023-05-23T13:35:43;5.22;;;2.70;;
59310;SDS011;45078;51.654;21.250;2023-05-23T13:38:09;3.97;;;2.67;;
59310;SDS011;45078;51.654;21.250;2023-05-23T13:40:35;4.18;;;2.63;;
59310;SDS011;45078;51.654;21.250;2023-05-23T13:43:01;5.70;;;2.65;;
59310;SDS011;45078;51.654;21.250;2023-05-23T13:45:27;4.38;;;2.80;;
59310;SDS011;45078;51.654;21.250;2023-05-23T13:47:54;4.80;;;2.95;;
59310;SDS011;45078;51.654;21.250;2023-05-23T13:50:19;4.53;;;2.80;;
59310;SDS011;45078;51.654;21.250;2023-05-23T13:52:45;4.68;;;2.70;;
59310;SDS011;45078;51.654;21.250;2023-05-23T13:55:11;4.60;;;2.88;;
59310;SDS011;45078;51.654;21.250;2023-05-23T13:57:37;4.22;;;2.63;;
59310;SDS011;45078;51.654;21.250;2023-05-23T14:00:03;6.53;;;3.72;;
59310;SDS011;45078;51.654;21.250;2023-05-23T14:02:29;3.78;;;2.67;;
59310;SDS011;45078;51.654;21.250;2023-05-23T14:04:56;4.97;;;2.90;;
59310;SDS011;45078;51.654;21.250;2023-05-23T14:07:22;7.22;;;2.33;;
59310;SDS011;45078;51.654;21.250;2023-05-23T14:09:48;4.90;;;3.17;;
59310;SDS011;45078;51.654;21.250;2023-05-23T14:12:14;6.72;;;3.42;;
59310;SDS011;45078;51.654;21.250;2023-05-23T14:14:40;6.22;;;2.58;;
59310;SDS011;45078;51.654;21.250;2023-05-23T14:17:06;6.38;;;2.80;;
59310;SDS011;45078;51.654;21.250;2023-05-23T14:19:31;5.05;;;2.67;;
59310;SDS011;45078;51.654;21.250;2023-05-23T14:21:57;4.53;;;2.70;;
59310;SDS011;45078;51.654;21.250;2023-05-23T14:24:23;3.90;;;2.60;;
59310;SDS011;45078;51.654;21.250;2023-05-23T14:26:49;4.95;;;2.60;;
59310;SDS011;45078;51.654;21.250;2023-05-23T14:29:14;5.75;;;2.50;;
59310;SDS011;45078;51.654;21.250;2023-05-23T14:31:40;5.03;;;2.92;;
59310;SDS011;45078;51.654;21.250;2023-05-23T14:34:06;4.63;;;2.67;;
59310;SDS011;45078;51.654;21.250;2023-05-23T14:36:32;4.10;;;3.10;;
59310;SDS011;45078;51.654;21.250;2023-05-23T14:38:57;3.78;;;2.50;;
59310;SDS011;45078;51.654;21.250;2023-05-23T14:41:25;5.93;;;2.70;;
59310;SDS011;45078;51.654;21.250;2023-05-23T14:43:52;6.18;;;3.20;;
59310;SDS011;45078;51.654;21.250;2023-05-23T14:46:18;4.75;;;2.65;;
59310;SDS011;45078;51.654;21.250;2023-05-23T14:48:44;4.43;;;2.67;;
59310;SDS011;45078;51.654;21.250;2023-05-23T14:51:10;5.63;;;2.60;;
59310;SDS011;45078;51.654;21.250;2023-05-23T14:53:35;3.90;;;2.60;;
59310;SDS011;45078;51.654;21.250;2023-05-23T14:56:01;3.97;;;2.30;;
59310;SDS011;45078;51.654;21.250;2023-05-23T14:58:27;3.55;;;2.17;;
59310;SDS011;45078;51.654;21.250;2023-05-23T15:00:53;4.03;;;2.45;;
59310;SDS011;45078;51.654;21.250;2023-05-23T15:03:19;6.35;;;2.40;;
59310;SDS011;45078;51.654;21.250;2023-05-23T15:05:44;5.63;;;2.22;;
59310;SDS011;45078;51.654;21.250;2023-05-23T15:08:10;3.60;;;2.28;;
59310;SDS011;45078;51.654;21.250;2023-05-23T15:10:36;5.80;;;2.50;;
59310;SDS011;45078;51.654;21.250;2023-05-23T15:13:02;3.38;;;2.33;;
59310;SDS011;45078;51.654;21.250;2023-05-23T15:15:28;3.72;;;2.38;;
59310;SDS011;45078;51.654;21.250;2023-05-23T15:18:01;4.13;;;2.00;;
59310;SDS011;45078;51.654;21.250;2023-05-23T15:20:31;4.35;;;2.30;;